sensor_id;sensor_type;location;lat;lon;timestamp;pressure;altitude;pressure_sealevel;temperature;humidity
56632;BME280;42503;39.928;-75.152;2023-09-07T00:03:12;100762.72;;;29.28;43.34
56632;BME280;42503;39.928;-75.152;2023-09-07T00:13:14;100781.00;;;29.43;42.79
56632;BME280;42503;39.928;-75.152;2023-09-07T00:23:15;100799.84;;;29.51;42.48
56632;BME280;42503;39.928;-75.152;2023-09-07T00:33:20;100803.13;;;29.53;42.61
56632;BME280;42503;39.928;-75.152;2023-09-07T00:43:24;100794.88;;;29.48;42.50
56632;BME280;42503;39.928;-75.152;2023-09-07T00:53:27;100802.16;;;29.49;42.69
56632;BME280;42503;39.928;-75.152;2023-09-07T01:03:34;100775.44;;;29.34;42.53
56632;BME280;42503;39.928;-75.152;2023-09-07T01:13:35;100821.19;;;29.60;42.67
56632;BME280;42503;39.928;-75.152;2023-09-07T01:23:37;100814.03;;;29.63;42.31
56632;BME280;42503;39.928;-75.152;2023-09-07T01:33:39;100820.84;;;29.62;42.18
56632;BME280;42503;39.928;-75.152;2023-09-07T01:43:41;100810.53;;;29.66;42.08
56632;BME280;42503;39.928;-75.152;2023-09-07T01:53:42;100797.63;;;29.65;41.85
56632;BME280;42503;39.928;-75.152;2023-09-07T02:03:44;100798.44;;;29.66;41.80
56632;BME280;42503;39.928;-75.152;2023-09-07T02:13:47;100792.84;;;29.57;41.90
56632;BME280;42503;39.928;-75.152;2023-09-07T02:23:49;100801.09;;;29.62;41.90
56632;BME280;42503;39.928;-75.152;2023-09-07T02:33:53;100809.34;;;29.67;41.59
56632;BME280;42503;39.928;-75.152;2023-09-07T02:43:54;100797.25;;;29.67;41.52
56632;BME280;42503;39.928;-75.152;2023-09-07T02:53:56;100791.25;;;29.68;41.43
56632;BME280;42503;39.928;-75.152;2023-09-07T03:03:57;100781.97;;;29.68;41.25
56632;BME280;42503;39.928;-75.152;2023-09-07T03:13:59;100763.97;;;29.60;41.23
56632;BME280;42503;39.928;-75.152;2023-09-07T03:24:00;100790.13;;;29.69;41.63
56632;BME280;42503;39.928;-75.152;2023-09-07T03:34:04;100770.84;;;29.71;41.88
56632;BME280;42503;39.928;-75.152;2023-09-07T03:44:06;100759.56;;;29.71;41.82
56632;BME280;42503;39.928;-75.152;2023-09-07T03:54:08;100748.28;;;29.71;41.86
56632;BME280;42503;39.928;-75.152;2023-09-07T04:04:09;100739.34;;;29.69;42.17
56632;BME280;42503;39.928;-75.152;2023-09-07T04:14:10;100751.56;;;29.73;41.94
56632;BME280;42503;39.928;-75.152;2023-09-07T04:24:12;100741.81;;;29.71;41.99
56632;BME280;42503;39.928;-75.152;2023-09-07T04:34:13;100741.81;;;29.71;41.93
56632;BME280;42503;39.928;-75.152;2023-09-07T04:44:17;100739.34;;;29.69;41.91
56632;BME280;42503;39.928;-75.152;2023-09-07T04:54:18;100746.63;;;29.70;42.12
56632;BME280;42503;39.928;-75.152;2023-09-07T05:04:20;100740.50;;;29.68;41.91
56632;BME280;42503;39.928;-75.152;2023-09-07T05:14:23;100708.78;;;29.50;41.82
56632;BME280;42503;39.928;-75.152;2023-09-07T05:24:25;100744.84;;;29.66;41.78
56632;BME280;42503;39.928;-75.152;2023-09-07T05:34:28;100740.72;;;29.63;41.58
56632;BME280;42503;39.928;-75.152;2023-09-07T05:44:30;100737.91;;;29.63;41.46
56632;BME280;42503;39.928;-75.152;2023-09-07T05:54:37;100729.19;;;29.56;41.50
56632;BME280;42503;39.928;-75.152;2023-09-07T06:04:42;100752.34;;;29.61;41.25
56632;BME280;42503;39.928;-75.152;2023-09-07T06:14:45;100753.38;;;29.57;41.08
56632;BME280;42503;39.928;-75.152;2023-09-07T06:24:47;100741.75;;;29.58;40.96
56632;BME280;42503;39.928;-75.152;2023-09-07T06:34:48;100749.88;;;29.60;40.97
56632;BME280;42503;39.928;-75.152;2023-09-07T06:44:53;100749.75;;;29.56;40.92
56632;BME280;42503;39.928;-75.152;2023-09-07T06:54:54;100746.56;;;29.58;40.71
56632;BME280;42503;39.928;-75.152;2023-09-07T07:04:55;100735.81;;;29.51;40.88
56632;BME280;42503;39.928;-75.152;2023-09-07T07:14:57;100741.13;;;29.53;40.76
56632;BME280;42503;39.928;-75.152;2023-09-07T07:24:58;100749.94;;;29.51;40.77
56632;BME280;42503;39.928;-75.152;2023-09-07T07:35:02;100742.72;;;29.42;40.88
56632;BME280;42503;39.928;-75.152;2023-09-07T07:45:04;100758.72;;;29.50;40.86
56632;BME280;42503;39.928;-75.152;2023-09-07T07:55:06;100757.06;;;29.49;40.98
56632;BME280;42503;39.928;-75.152;2023-09-07T08:05:13;100755.41;;;29.48;40.61
56632;BME280;42503;39.928;-75.152;2023-09-07T08:15:15;100744.97;;;29.48;40.55
56632;BME280;42503;39.928;-75.152;2023-09-07T08:25:16;100754.25;;;29.49;40.37
56632;BME280;42503;39.928;-75.152;2023-09-07T08:35:21;100760.56;;;29.46;40.39
56632;BME280;42503;39.928;-75.152;2023-09-07T08:45:29;100751.84;;;29.38;40.33
56632;BME280;42503;39.928;-75.152;2023-09-07T08:55:32;100762.44;;;29.42;40.40
56632;BME280;42503;39.928;-75.152;2023-09-07T09:05:35;100764.75;;;29.40;40.57
56632;BME280;42503;39.928;-75.152;2023-09-07T09:15:39;100767.59;;;29.40;40.10
56632;BME280;42503;39.928;-75.152;2023-09-07T09:25:44;100760.84;;;29.32;40.32
56632;BME280;42503;39.928;-75.152;2023-09-07T09:35:45;100781.06;;;29.34;40.28
56632;BME280;42503;39.928;-75.152;2023-09-07T09:45:49;100769.16;;;29.28;40.41
56632;BME280;42503;39.928;-75.152;2023-09-07T09:55:56;100781.22;;;29.37;40.22
56632;BME280;42503;39.928;-75.152;2023-09-07T10:06:19;100769.16;;;29.28;40.79
56632;BME280;42503;39.928;-75.152;2023-09-07T10:16:23;100783.72;;;29.30;40.96
56632;BME280;42503;39.928;-75.152;2023-09-07T10:26:25;100808.06;;;29.35;41.29
56632;BME280;42503;39.928;-75.152;2023-09-07T10:36:27;100821.53;;;29.29;41.52
56632;BME280;42503;39.928;-75.152;2023-09-07T10:46:29;100763.25;;;28.92;41.71
56632;BME280;42503;39.928;-75.152;2023-09-07T10:56:30;100834.63;;;29.34;41.67
56632;BME280;42503;39.928;-75.152;2023-09-07T11:06:31;100836.47;;;29.30;42.31
56632;BME280;42503;39.928;-75.152;2023-09-07T11:16:33;100807.44;;;29.29;43.22
56632;BME280;42503;39.928;-75.152;2023-09-07T11:26:43;100856.06;;;29.56;43.96
56632;BME280;42503;39.928;-75.152;2023-09-07T11:36:44;100845.41;;;29.61;44.58
56632;BME280;42503;39.928;-75.152;2023-09-07T11:46:46;100858.72;;;29.73;45.13
56632;BME280;42503;39.928;-75.152;2023-09-07T11:56:47;100853.16;;;29.85;45.46
56632;BME280;42503;39.928;-75.152;2023-09-07T12:06:49;100849.88;;;29.83;45.67
56632;BME280;42503;39.928;-75.152;2023-09-07T12:16:50;100864.19;;;29.99;45.56
56632;BME280;42503;39.928;-75.152;2023-09-07T12:26:54;100865.50;;;30.02;45.57
56632;BME280;42503;39.928;-75.152;2023-09-07T12:36:55;100850.22;;;30.03;45.68
56632;BME280;42503;39.928;-75.152;2023-09-07T12:46:57;100857.63;;;30.07;45.81
56632;BME280;42503;39.928;-75.152;2023-09-07T12:57:01;100861.59;;;30.15;45.68
56632;BME280;42503;39.928;-75.152;2023-09-07T13:07:02;100850.09;;;30.20;45.77
56632;BME280;42503;39.928;-75.152;2023-09-07T13:17:04;100866.81;;;30.25;45.91
56632;BME280;42503;39.928;-75.152;2023-09-07T13:27:08;100857.63;;;30.28;45.99
56632;BME280;42503;39.928;-75.152;2023-09-07T13:37:11;100862.56;;;30.31;46.17
56632;BME280;42503;39.928;-75.152;2023-09-07T13:47:15;100865.19;;;30.36;46.33
56632;BME280;42503;39.928;-75.152;2023-09-07T13:57:16;100866.97;;;30.41;46.58
56632;BME280;42503;39.928;-75.152;2023-09-07T14:07:18;100873.56;;;30.45;46.52
56632;BME280;42503;39.928;-75.152;2023-09-07T14:17:20;100873.56;;;30.45;46.87
56632;BME280;42503;39.928;-75.152;2023-09-07T14:27:21;100879.13;;;30.54;46.95
56632;BME280;42503;39.928;-75.152;2023-09-07T14:37:22;100839.31;;;30.34;47.10
56632;BME280;42503;39.928;-75.152;2023-09-07T14:47:24;100859.34;;;30.54;47.00
56632;BME280;42503;39.928;-75.152;2023-09-07T14:57:27;100860.53;;;30.65;47.30
56632;BME280;42503;39.928;-75.152;2023-09-07T15:07:28;100860.84;;;30.72;47.17
56632;BME280;42503;39.928;-75.152;2023-09-07T15:17:30;100844.09;;;30.67;47.50
56632;BME280;42503;39.928;-75.152;2023-09-07T15:27:31;100804.97;;;30.45;47.46
56632;BME280;42503;39.928;-75.152;2023-09-07T15:37:33;100855.84;;;30.69;47.53
56632;BME280;42503;39.928;-75.152;2023-09-07T15:47:34;100858.03;;;30.84;47.80
56632;BME280;42503;39.928;-75.152;2023-09-07T15:57:38;100852.28;;;30.93;47.72
56632;BME280;42503;39.928;-75.152;2023-09-07T16:07:57;100841.56;;;30.99;47.58
56632;BME280;42503;39.928;-75.152;2023-09-07T16:17:58;100817.41;;;31.01;47.95
56632;BME280;42503;39.928;-75.152;2023-09-07T16:28:00;100820.13;;;31.10;48.02
56632;BME280;42503;39.928;-75.152;2023-09-07T16:38:01;100805.31;;;31.13;47.97
56632;BME280;42503;39.928;-75.152;2023-09-07T16:48:02;100782.69;;;31.13;47.96
56632;BME280;42503;39.928;-75.152;2023-09-07T16:58:04;100769.63;;;31.21;47.92
56632;BME280;42503;39.928;-75.152;2023-09-07T17:08:05;100768.75;;;31.20;48.05
56632;BME280;42503;39.928;-75.152;2023-09-07T17:18:07;100760.56;;;31.27;47.89
56632;BME280;42503;39.928;-75.152;2023-09-07T17:28:08;100743.59;;;31.27;47.98
56632;BME280;42503;39.928;-75.152;2023-09-07T17:38:10;100738.50;;;31.33;47.83
56632;BME280;42503;39.928;-75.152;2023-09-07T17:48:11;100721.09;;;31.31;47.89
56632;BME280;42503;39.928;-75.152;2023-09-07T17:58:18;100719.38;;;31.42;47.69
56632;BME280;42503;39.928;-75.152;2023-09-07T18:08:20;100716.22;;;31.44;47.51
56632;BME280;42503;39.928;-75.152;2023-09-07T18:18:21;100699.44;;;31.51;47.37
56632;BME280;42503;39.928;-75.152;2023-09-07T18:28:22;100690.69;;;31.56;47.30
56632;BME280;42503;39.928;-75.152;2023-09-07T18:38:24;100679.38;;;31.56;47.29
56632;BME280;42503;39.928;-75.152;2023-09-07T18:48:25;100672.31;;;31.62;46.91
56632;BME280;42503;39.928;-75.152;2023-09-07T18:58:26;100654.59;;;31.65;46.92
56632;BME280;42503;39.928;-75.152;2023-09-07T19:08:28;100620.09;;;31.59;46.69
56632;BME280;42503;39.928;-75.152;2023-09-07T19:18:33;100639.47;;;31.73;46.84
56632;BME280;42503;39.928;-75.152;2023-09-07T19:28:34;100638.75;;;31.76;46.64
56632;BME280;42503;39.928;-75.152;2023-09-07T19:38:35;100652.16;;;31.79;46.42
56632;BME280;42503;39.928;-75.152;2023-09-07T19:48:37;100651.47;;;31.82;46.43
56632;BME280;42503;39.928;-75.152;2023-09-07T19:58:39;100633.31;;;31.83;46.48
56632;BME280;42503;39.928;-75.152;2023-09-07T20:08:41;100605.81;;;31.84;46.58
56632;BME280;42503;39.928;-75.152;2023-09-07T20:18:42;100596.63;;;31.87;46.43
56632;BME280;42503;39.928;-75.152;2023-09-07T20:28:48;100602.38;;;31.91;46.34
56632;BME280;42503;39.928;-75.152;2023-09-07T20:38:50;100615.72;;;31.90;46.09
56632;BME280;42503;39.928;-75.152;2023-09-07T20:48:51;100617.72;;;31.90;45.98
56632;BME280;42503;39.928;-75.152;2023-09-07T20:58:52;100622.19;;;31.91;45.83
56632;BME280;42503;39.928;-75.152;2023-09-07T21:08:54;100631.88;;;31.90;44.89
56632;BME280;42503;39.928;-75.152;2023-09-07T21:18:56;100644.78;;;31.47;42.99
56632;BME280;42503;39.928;-75.152;2023-09-07T21:28:57;100650.00;;;31.45;42.62
56632;BME280;42503;39.928;-75.152;2023-09-07T21:38:59;100647.22;;;31.20;41.90
56632;BME280;42503;39.928;-75.152;2023-09-07T21:49:00;100654.72;;;30.88;41.92
56632;BME280;42503;39.928;-75.152;2023-09-07T21:59:02;100653.22;;;30.66;41.55
56632;BME280;42503;39.928;-75.152;2023-09-07T22:09:04;100679.59;;;30.58;41.51
56632;BME280;42503;39.928;-75.152;2023-09-07T22:19:05;100668.28;;;30.33;41.32
56632;BME280;42503;39.928;-75.152;2023-09-07T22:29:07;100714.59;;;30.32;41.36
56632;BME280;42503;39.928;-75.152;2023-09-07T22:39:09;100719.53;;;30.23;41.25
56632;BME280;42503;39.928;-75.152;2023-09-07T22:49:12;100716.81;;;30.15;41.27
56632;BME280;42503;39.928;-75.152;2023-09-07T22:59:13;100724.66;;;29.97;41.56
56632;BME280;42503;39.928;-75.152;2023-09-07T23:09:15;100719.69;;;29.94;41.73
56632;BME280;42503;39.928;-75.152;2023-09-07T23:19:17;100743.44;;;29.93;41.84
56632;BME280;42503;39.928;-75.152;2023-09-07T23:29:19;100752.13;;;29.87;41.77
56632;BME280;42503;39.928;-75.152;2023-09-07T23:39:20;100757.09;;;29.70;41.35
56632;BME280;42503;39.928;-75.152;2023-09-07T23:49:21;100745.38;;;29.59;41.55
56632;BME280;42503;39.928;-75.152;2023-09-07T23:59:23;100707.28;;;29.32;42.30
